Tiempo atmosférico en la estación meteorológica de Amurrio, Araba/Álava (240 m.)



Fecha
DESCASC
Temp. máxima en grados centígrados (hora)
DESCASC
Temp. mínima en grados centígrados (hora)
DESCASC
Temp. media en grados centígrados
DESCASC
Racha de viento máxima en m/sg (hora)
DESCASC
Velocidad máxima media en intervalos de 10 minutos(hora)
DESCASC
Precipitaciones diarias en mm
DESCASC
Precipitaciones de 00:00 a 06:00 en mm
DESCASC
Precipitaciones de 06:00 a 12:00 en mm
DESCASC
Precipitaciones de 12:00 a 18:00 en mm
DESCASC
Precipitaciones de 18:00 a 24:00 en mm
DESCASC
18-01-2018 12.7 (16:10) 0.2 (07:10) 6.4 5.28 (17:20) 3.06 (17:20) 0 0 0 0 0
17-01-2018 12.5 (02:20) 4.5 (23:59) 8.5 11.67 (13:20) 6.11 (13:30) 2.6 0.8 1.8 0 0
16-01-2018 15.2 (16:10) 7.3 (07:50) 11.3 4.72 (00:20) 2.22 (01:10) 0 0 0 0 0
15-01-2018 10.7 (15:20) 2.4 (09:30) 6.5 6.67 (18:50) 4.17 (17:00) 1 0.8 0.2 0 0
14-01-2018 8.6 (14:10) 3.3 (00:00) 6 3.06 (14:30) 1.67 (14:30) 5.6 1.2 0 1.2 3.2
13-01-2018 9 (05:10) 3.7 (00:00) 6.4 11.39 (05:50) 6.39 (06:00) 5.6 0 0 0.8 4.8
12-01-2018 11 (16:10) 3.8 (00:00) 7.4 4.44 (17:50) 2.22 (16:30) 1.8 1.8 0 0 0
11-01-2018 9 (19:40) 2.9 (00:00) 6 9.72 (19:40) 4.72 (05:20) 16.2 0.4 4 9.4 2.4
10-01-2018 12 (16:20) 2.2 (00:00) 7.1 10.83 (15:00) 5 (12:30) 2.8 0 0 1.2 1.6
09-01-2018 9.3 (14:10) -0.3 (00:00) 4.5 15 (10:40) 7.5 (10:50) 0.6 0 0 0.6 0
08-01-2018 10 (15:20) 0.6 (00:00) 5.3 4.17 (12:40) 2.22 (12:40) 0 0 0 0 0
07-01-2018 7.9 (16:10) 2.5 (00:00) 5.2 6.67 (03:50) 3.33 (03:40) 15.4 11.4 3.4 0.6 0
06-01-2018 6.9 (00:00) 1.1 (00:00) 4 6.39 (18:30) 3.06 (18:30) 35.4 5.2 5 12.6 12.6
05-01-2018 15.2 (00:10) 6.9 (00:00) 11 13.61 (02:40) 5.28 (02:40) 15.2 0 5.2 4.6 5.4
04-01-2018 17.6 (14:10) 9.3 (06:00) 13.5 11.11 (21:40) 5.56 (22:50) 0 0 0 0 0
03-01-2018 18.5 (14:10) 11.9 (00:00) 15.2 8.89 (07:30) 3.61 (08:30) 0.8 0 0 0 0.8
02-01-2018 15.6 (16:40) 9.3 (00:00) 12.5 8.89 (07:40) 3.06 (07:50) 8 3.4 3.4 1.2 0
01-01-2018 14 (15:50) 1.9 (00:00) 7.9 18.33 (14:00) 10 (14:00) 11 0 0 4.2 6.8
31-12-2017 17.2 (12:30) 3.6 (00:00) 10.4 15 (09:50) 6.11 (13:30) 8.8 0 0 8.6 0.2
30-12-2017 18.3 (13:10) 9.3 (00:00) 13.8 12.22 (20:10) 4.72 (23:20) 0 0 0 0 0
29-12-2017 16.3 (15:10) 6 (00:00) 11.1 10.56 (23:50) 4.44 (23:50) 3.6 0.2 3.4 0 0
28-12-2017 12.6 (14:50) 4.5 (00:00) 8.6 9.17 (15:20) 5.83 (15:20) 10.2 1.4 2.6 1.4 4.8
27-12-2017 11 (00:00) 4.4 (00:00) 7.7 16.67 (10:50) 7.22 (11:20) 20 5.6 3 7 4.4
26-12-2017 11.2 (23:40) 2.3 (00:00) 6.7 12.5 (21:50) 5.83 (15:50) 4.2 3 0 0 1.2
25-12-2017 11.4 (12:50) 0.7 (00:00) 6 11.94 (19:40) 6.94 (19:40) 1.6 0 0 0 1.6
24-12-2017 13.8 (15:00) 1.6 (00:00) 7.7 3.61 (16:30) 2.78 (16:30) 0 0 0 0 0
23-12-2017 9.3 (14:50) 6.8 (00:00) 8.1 4.72 (16:00) 2.5 (14:30) 0.6 0.2 0.4 0 0
22-12-2017 9.6 (15:10) 2.5 (00:00) 6.1 2.5 (15:50) 1.67 (16:10) 0.6 0 0 0 0.6
21-12-2017 11.7 (15:20) 2.2 (00:00) 6.9 3.33 (14:20) 2.22 (17:30) 0 0 0 0 0

Gráficas

Temp. máximas Temp. mínimas Temp. medias Precipitaciones Rachas de viento máximas Velocidades máximas media en intervalos de 10 minutos

Datos horarios

Fecha y hora oficial Temperatura (ºC) Velocidad del viento (km/h) Dirección del viento Racha (km/h) Dirección de racha Precipitación (mm) Presión (hPa) Tendencia (hPa) Humedad (%)
2018-01-19 23:00:00 7.9 0 Calma 5 Sudoeste 0 -- -- 97
2018-01-19 22:00:00 7.9 2 Sur 4 Sudeste 0 -- -- 96
2018-01-19 21:00:00 8 2 Sudoeste 6 Sudoeste 0 -- -- 95
2018-01-19 20:00:00 8.2 3 Sudoeste 10 Norte 0 -- -- 95
2018-01-19 19:00:00 8.4 3 Sudoeste 8 Sudoeste 0 -- -- 95
2018-01-19 18:00:00 8.8 0 Calma 7 Oeste 0 -- -- 96
2018-01-19 17:00:00 9.1 0 Calma 6 Sudeste 0 -- -- 96
2018-01-19 16:00:00 9.1 2 Sur 6 Este 0.6 -- -- 95
2018-01-19 15:00:00 9.4 3 Nordeste 17 Noroeste 0 -- -- 90
2018-01-19 14:00:00 9.1 4 Norte 37 Noroeste 0.2 -- -- 89
2018-01-19 13:00:00 9.2 10 Noroeste 24 Noroeste 2.4 -- -- 100
2018-01-19 12:00:00 8.8 0 Calma 4 Sudoeste 2 -- -- 100
2018-01-19 11:00:00 8.2 0 Calma 4 Oeste 0.6 -- -- 100
2018-01-19 10:00:00 7.7 0 Calma 7 Norte 0.4 -- -- 100
2018-01-19 09:00:00 7.3 2 Oeste 6 Oeste 0 -- -- 100
2018-01-19 08:00:00 7.3 0 Calma 3 Oeste 0 -- -- 99
2018-01-19 07:00:00 7.2 0 Calma 6 Oeste 0 -- -- 99
2018-01-19 06:00:00 7.1 3 Oeste 6 Sudoeste 0 -- -- 99
2018-01-19 05:00:00 7 4 Este 9 Sudeste 0 -- -- 98
2018-01-19 04:00:00 7.1 0 Calma 5 Este 0 -- -- 97
2018-01-19 03:00:00 7 0 Calma 4 Sur 0 -- -- 97
2018-01-19 02:00:00 6.8 0 Calma 3 Oeste 0 -- -- 97
2018-01-19 01:00:00 6.5 0 Calma 6 Sudeste 0 -- -- 97
2018-01-19 00:00:00 6.1 0 Calma 6 Oeste 0 -- -- 97
2018-01-18 23:00:00 6.1 0 Calma 4 Noroeste 0 -- -- 95
2018-01-18 22:00:00 7.1 0 Calma 4 Oeste 0 -- -- 95
2018-01-18 21:00:00 7.3 2 Oeste 4 Sudoeste 0 -- -- 92
2018-01-18 20:00:00 7.7 0 Calma 3 Este 0 -- -- 91
2018-01-18 19:00:00 8.6 2 Norte 15 Oeste 0 -- -- 87
2018-01-18 18:00:00 10.2 7 Noroeste 19 Noroeste 0 -- -- 78
2018-01-18 17:00:00 11.8 9 Noroeste 14 Noroeste 0 -- -- 70
2018-01-18 16:00:00 12.6 5 Norte 8 Norte 0 -- -- 62
2018-01-18 15:00:00 12.1 2 Noroeste 10 Noroeste 0 -- -- 63
2018-01-18 14:00:00 11.2 2 Norte 6 Sudeste 0 -- -- 65
2018-01-18 13:00:00 11 2 Este 6 Este 0 -- -- 70
2018-01-18 12:00:00 8.7 3 Este 6 Este 0 -- -- 80
2018-01-18 11:00:00 5.2 2 Nordeste 4 Nordeste 0 -- -- 92
2018-01-18 10:00:00 1.7 0 Calma 2 Noroeste 0 -- -- 100
2018-01-18 09:00:00 0.2 0 Calma 4 Sudoeste 0 -- -- 100
2018-01-18 08:00:00 0.4 3 Oeste 6 Sudoeste 0 -- -- 100
2018-01-18 07:00:00 0.4 0 Calma 4 Oeste 0 -- -- 100
2018-01-18 06:00:00 0.8 0 Calma 3 Sudeste 0 -- -- 99
2018-01-18 05:00:00 1.3 0 Calma 7 Sudoeste 0 -- -- 99
2018-01-18 04:00:00 1.7 0 Calma 8 Sudoeste 0 -- -- 98
2018-01-18 03:00:00 2.3 0 Calma 3 Sudoeste 0 -- -- 98
2018-01-18 02:00:00 2.8 2 Sur 5 Sudoeste 0 -- -- 97
2018-01-18 01:00:00 3.5 0 Calma 5 Oeste 0 -- -- 96
2018-01-18 00:00:00 4.5 0 Calma 10 Sudeste 0 -- -- 93
2018-01-17 23:00:00 5.4 3 Sur 5 Sur 0 -- -- 94
2018-01-17 22:00:00 6.8 2 Sudoeste 4 Sudoeste 0 -- -- 91
2018-01-17 21:00:00 8.1 0 Calma 5 Sur 0 -- -- 89
2018-01-17 20:00:00 8.4 2 Sudoeste 7 Sudoeste 0 -- -- 89
2018-01-17 19:00:00 8.7 6 Sudoeste 8 Sudoeste 0 -- -- 89
2018-01-17 18:00:00 9.3 0 Calma 5 Nordeste 0 -- -- 86
2018-01-17 17:00:00 9.3 0 Calma 15 Norte 0 -- -- 86
2018-01-17 16:00:00 9.9 7 Norte 24 Norte 0 -- -- 80
2018-01-17 15:00:00 10.3 9 Noroeste 21 Norte 0 -- -- 74
2018-01-17 14:00:00 10.3 16 Noroeste 42 Norte 0 -- -- 72
2018-01-17 13:00:00 11.5 19 Noroeste 32 Norte 0 -- -- 66
2018-01-17 12:00:00 10.7 12 Norte 20 Norte 0 -- -- 77
2018-01-17 11:00:00 9.7 6 Noroeste 20 Noroeste 0.2 -- -- 86
2018-01-17 10:00:00 8.4 6 Noroeste 14 Noroeste 0.4 -- -- 91
2018-01-17 09:00:00 8.3 2 Nordeste 18 Noroeste 0.2 -- -- 92
2018-01-17 08:00:00 8.1 2 Norte 10 Este 0.4 -- -- 95
2018-01-17 07:00:00 8.9 3 Este 18 Noroeste 0.6 -- -- 93
2018-01-17 06:00:00 9.4 6 Oeste 21 Norte 0.6 -- -- 92
2018-01-17 05:00:00 10.2 8 Noroeste 22 Norte 0 -- -- 88
2018-01-17 04:00:00 10.9 6 Norte 16 Noroeste 0.2 -- -- 89
2018-01-17 03:00:00 12.2 7 Noroeste 32 Noroeste 0 -- -- 77
2018-01-17 02:00:00 11 12 Noroeste 24 Noroeste 0 -- -- 91
2018-01-17 01:00:00 9.5 0 Calma 10 Oeste 0 -- -- 91
2018-01-17 00:00:00 9.3 2 Nordeste 6 Sudoeste 0 -- -- 91
2018-01-16 23:00:00 9.3 2 Oeste 14 Sudoeste 0 -- -- 91
2018-01-16 22:00:00 8.6 0 Calma 6 Sudoeste 0 -- -- 91
2018-01-16 21:00:00 8.8 3 Sudoeste 10 Sudoeste 0 -- -- 89
2018-01-16 20:00:00 9.6 0 Calma 10 Sudoeste 0 -- -- 84
2018-01-16 19:00:00 10.9 6 Sudoeste 11 Oeste 0 -- -- 78
2018-01-16 18:00:00 13 4 Este 13 Sudoeste 0 -- -- 71
2018-01-16 17:00:00 14.4 6 Sur 12 Sur 0 -- -- 65
2018-01-16 16:00:00 15.1 3 Sur 11 Norte 0 -- -- 63
2018-01-16 15:00:00 14.9 3 Nordeste 12 Noroeste 0 -- -- 62
2018-01-16 14:00:00 14.3 4 Nordeste 9 Norte 0 -- -- 64
2018-01-16 13:00:00 13.4 4 Norte 9 Este 0 -- -- 66
2018-01-16 12:00:00 12.4 2 Norte 7 Norte 0 -- -- 68
2018-01-16 11:00:00 10.1 0 Calma 8 Oeste 0 -- -- 77
2018-01-16 10:00:00 8.4 0 Calma 7 Oeste 0 -- -- 86
2018-01-16 09:00:00 7.3 6 Oeste 10 Sudoeste 0 -- -- 90
2018-01-16 08:00:00 7.4 4 Oeste 8 Sudoeste 0 -- -- 89
2018-01-16 07:00:00 7.6 4 Oeste 10 Sudoeste 0 -- -- 87
2018-01-16 06:00:00 7.8 4 Oeste 9 Oeste 0 -- -- 86
2018-01-16 05:00:00 8.6 3 Sudoeste 9 Sudeste 0 -- -- 80
2018-01-16 04:00:00 9.6 0 Calma 15 Sudeste 0 -- -- 73
2018-01-16 03:00:00 9.7 2 Sudoeste 10 Este 0 -- -- 72
2018-01-16 02:00:00 9.9 4 Norte 14 Nordeste 0 -- -- 69
2018-01-16 01:00:00 10.2 6 Nordeste 17 Nordeste 0 -- -- 66
2018-01-16 00:00:00 9.9 5 Nordeste 17 Norte 0 -- -- 67
2018-01-15 23:00:00 9.6 8 Nordeste 17 Nordeste 0 -- -- 67
2018-01-15 22:00:00 9.5 5 Nordeste 15 Noroeste 0 -- -- 65
2018-01-15 21:00:00 8.8 3 Oeste 22 Sudeste 0 -- -- 69
2018-01-15 20:00:00 8.4 5 Sudeste 18 Sudeste 0 -- -- 66
2018-01-15 19:00:00 9 11 Sur 24 Sur 0 -- -- 60
2018-01-15 18:00:00 9 4 Nordeste 23 Sur 0 -- -- 60
2018-01-15 17:00:00 9.3 15 Sur 24 Sur 0 -- -- 57
2018-01-15 16:00:00 10.3 5 Norte 14 Sudeste 0 -- -- 62
2018-01-15 15:00:00 10.6 4 Sur 22 Este 0 -- -- 58
2018-01-15 14:00:00 10.2 2 Sudoeste 21 Sur 0 -- -- 62
2018-01-15 13:00:00 9.7 4 Norte 13 Sudoeste 0 -- -- 67
2018-01-15 12:00:00 8.6 4 Este 19 Sur 0 -- -- 75
2018-01-15 11:00:00 4.6 0 Calma 5 Sur 0 -- -- 100
2018-01-15 10:00:00 2.6 0 Calma 3 Noroeste 0 -- -- 100
2018-01-15 09:00:00 2.6 0 Calma 2 Sudoeste 0 -- -- 100
2018-01-15 08:00:00 2.7 3 Sudoeste 6 Sudoeste 0 -- -- 100
2018-01-15 07:00:00 3 2 Oeste 5 Sudoeste 0.2 -- -- 100
2018-01-15 06:00:00 3.8 4 Sudoeste 8 Sudoeste 0 -- -- 100
2018-01-15 05:00:00 5.3 0 Calma 4 Sudeste 0 -- -- 100
2018-01-15 04:00:00 5.6 0 Calma 4 Sudoeste 0.4 -- -- 100
2018-01-15 03:00:00 5.7 0 Calma 5 Oeste 0 -- -- 100
2018-01-15 02:00:00 5.7 0 Calma 6 Sudeste 0 -- -- 100
2018-01-15 01:00:00 5.9 3 Sur 7 Sudoeste 0.4 -- -- 100
2018-01-15 00:00:00 5.8 0 Calma 6 Sur 0.2 -- -- 100
2018-01-14 23:00:00 5.9 2 Sudeste 8 Sudoeste 0.8 -- -- 100
2018-01-14 22:00:00 6 3 Norte 5 Sudoeste 0.4 -- -- 99
2018-01-14 21:00:00 6 0 Calma 7 Sur 0.2 -- -- 99
2018-01-14 20:00:00 6.3 3 Este 5 Sudoeste 1.2 -- -- 98
2018-01-14 19:00:00 6.6 0 Calma 4 Sur 0.4 -- -- 97
2018-01-14 18:00:00 6.8 0 Calma 3 Norte 0.6 -- -- 95
2018-01-14 17:00:00 7 0 Calma 5 Este 0.4 -- -- 92
2018-01-14 16:00:00 7.3 0 Calma 6 Este 0.2 -- -- 88
2018-01-14 15:00:00 7.9 3 Norte 11 Norte 0 -- -- 84
2018-01-14 14:00:00 8.5 4 Nordeste 6 Nordeste 0 -- -- 81
2018-01-14 13:00:00 7.9 0 Calma 6 Nordeste 0 -- -- 85
2018-01-14 12:00:00 6.7 0 Calma 4 Oeste 0 -- -- 97
2018-01-14 11:00:00 5.2 0 Calma 5 Oeste 0 -- -- 100
2018-01-14 10:00:00 4.2 0 Calma 3 Noroeste 0 -- -- 100
2018-01-14 09:00:00 3.9 0 Calma 2 Sudeste 0 -- -- 100
2018-01-14 08:00:00 3.7 0 Calma 6 Sudeste 0 -- -- 100
2018-01-14 07:00:00 3.5 0 Calma 3 Noroeste 0 -- -- 100
2018-01-14 06:00:00 3.3 0 Calma 6 Sudoeste 0 -- -- 100
2018-01-14 05:00:00 3.7 0 Calma 5 Oeste 0 -- -- 99
2018-01-14 04:00:00 4.2 2 Sudoeste 5 Oeste 0 -- -- 99
2018-01-14 03:00:00 4.2 2 Este 6 Sur 0.2 -- -- 98
2018-01-14 02:00:00 4 2 Sudeste 5 Sudeste 0.6 -- -- 98
2018-01-14 01:00:00 4 0 Calma 4 Sudoeste 0.4 -- -- 96
2018-01-14 00:00:00 4 0 Calma 9 Sudeste 0.6 -- -- 95
2018-01-13 23:00:00 3.9 4 Este 13 Este 0.2 -- -- 95
2018-01-13 22:00:00 4.1 5 Este 13 Este 1.2 -- -- 94
2018-01-13 21:00:00 4.5 5 Este 12 Este 1.2 -- -- 94
2018-01-13 20:00:00 4.7 3 Este 19 Este 0.8 -- -- 93
2018-01-13 19:00:00 5.1 6 Sudeste 17 Este 0.8 -- -- 91
2018-01-13 18:00:00 5.9 7 Sudeste 14 Sur 0.8 -- -- 87
2018-01-13 17:00:00 6.8 6 Sudeste 13 Sur 0 -- -- 80
2018-01-13 16:00:00 7.3 5 Sur 23 Sur 0 -- -- 76
2018-01-13 15:00:00 7.6 7 Sudeste 15 Sur 0 -- -- 72
2018-01-13 14:00:00 7.5 4 Sur 26 Sur 0 -- -- 72
2018-01-13 13:00:00 7.3 15 Sur 22 Sudoeste 0 -- -- 71
2018-01-13 12:00:00 7.2 5 Sudeste 27 Sudeste 0 -- -- 71
2018-01-13 11:00:00 6.6 13 Sudeste 35 Sudeste 0 -- -- 73
2018-01-13 10:00:00 6.5 15 Sudeste 31 Sudeste 0 -- -- 72
2018-01-13 09:00:00 6.8 14 Sudeste 32 Sudeste 0 -- -- 70
2018-01-13 08:00:00 7.7 9 Sudeste 25 Sudeste 0 -- -- 64
2018-01-13 07:00:00 8.3 18 Sur 39 Sur 0 -- -- 61
2018-01-13 06:00:00 7.9 23 Sur 41 Sur 0 -- -- 64
2018-01-13 05:00:00 8.9 21 Sudeste 37 Sur 0 -- -- 58
2018-01-13 04:00:00 8.6 17 Este 32 Sur 0 -- -- 59
2018-01-13 03:00:00 8.7 14 Sudeste 33 Sur 0 -- -- 56
2018-01-13 02:00:00 7.9 13 Sudeste 31 Sudeste 0 -- -- 60
2018-01-13 01:00:00 4.1 3 Norte 14 Sudoeste 0 -- -- 85
2018-01-13 00:00:00 3.8 3 Oeste 8 Sudoeste 0 -- -- 87
2018-01-12 23:00:00 4.8 8 Sudoeste 12 Sudoeste 0 -- -- 85
2018-01-12 22:00:00 6.2 4 Oeste 9 Sudoeste 0 -- -- 82
2018-01-12 21:00:00 7.3 4 Sudoeste 13 Este 0 -- -- 73
2018-01-12 20:00:00 7.9 8 Sur 14 Sudeste 0 -- -- 67
2018-01-12 19:00:00 8.3 5 Sur 12 Sur 0 -- -- 70
2018-01-12 18:00:00 9.3 5 Sur 16 Sudoeste 0 -- -- 71
2018-01-12 17:00:00 10.6 4 Sur 14 Este 0 -- -- 70
2018-01-12 16:00:00 10.9 5 Sudeste 9 Sudeste 0 -- -- 71
2018-01-12 15:00:00 10.6 4 Este 10 Este 0 -- -- 75
2018-01-12 14:00:00 10 2 Este 5 Sudeste 0 -- -- 81
2018-01-12 13:00:00 8.8 0 Calma 3 Este 0 -- -- 97
2018-01-12 12:00:00 7.9 0 Calma 5 Sudoeste 0 -- -- 100
2018-01-12 11:00:00 7 0 Calma 3 Norte 0 -- -- 100
2018-01-12 10:00:00 6.5 0 Calma 4 Nordeste 0 -- -- 100
2018-01-12 09:00:00 6.2 5 Sudoeste 9 Sudoeste 0 -- -- 100
2018-01-12 08:00:00 6.1 0 Calma 4 Noroeste 0 -- -- 100
2018-01-12 07:00:00 6.2 0 Calma 5 Sudoeste 0 -- -- 100
2018-01-12 06:00:00 6.4 3 Oeste 4 Oeste 0.2 -- -- 100
2018-01-12 05:00:00 6.8 2 Nordeste 5 Sudoeste 0.2 -- -- 100
2018-01-12 04:00:00 7 2 Oeste 4 Oeste 0.4 -- -- 100
2018-01-12 03:00:00 7.1 0 Calma 5 Nordeste 0 -- -- 99
2018-01-12 02:00:00 7.3 0 Calma 5 Sur 1 -- -- 98
2018-01-12 01:00:00 7.6 3 Sur 8 Noroeste 0 -- -- 96
2018-01-12 00:00:00 7.9 6 Noroeste 11 Noroeste 0 -- -- 95
2018-01-11 23:00:00 7.8 4 Norte 21 Noroeste 0.2 -- -- 95
2018-01-11 22:00:00 7.6 5 Norte 12 Norte 1.2 -- -- 97
2018-01-11 21:00:00 7.8 6 Norte 28 Norte 1 -- -- 94
2018-01-11 20:00:00 8.8 14 Noroeste 35 Noroeste 0 -- -- 83
2018-01-11 19:00:00 7.6 13 Noroeste 28 Oeste 0 -- -- 94
2018-01-11 18:00:00 4.8 4 Oeste 10 Sudoeste 0.2 -- -- 97
2018-01-11 17:00:00 4.2 3 Este 15 Sudeste 0.8 -- -- 97
2018-01-11 16:00:00 3.9 5 Sudeste 28 Este 1.2 -- -- 96
2018-01-11 15:00:00 4.8 5 Este 9 Este 2.6 -- -- 96
2018-01-11 14:00:00 4.9 3 Este 7 Este 2.8 -- -- 96
2018-01-11 13:00:00 5.1 2 Sudeste 14 Sudoeste 1.8 -- -- 92
2018-01-11 12:00:00 5.7 0 Calma 10 Sudoeste 2.2 -- -- 89
2018-01-11 11:00:00 6.2 3 Este 9 Este 0.2 -- -- 92
2018-01-11 10:00:00 5 2 Sudeste 21 Sudoeste 1.4 -- -- 90
2018-01-11 09:00:00 5.2 5 Sudoeste 17 Oeste 0 -- -- 84
2018-01-11 08:00:00 4.3 0 Calma 9 Sudoeste 0.2 -- -- 91
2018-01-11 07:00:00 4.2 2 Sudoeste 10 Sudoeste 0 -- -- 91
2018-01-11 06:00:00 5.3 3 Sur 32 Oeste 0.4 -- -- 86
2018-01-11 05:00:00 6.1 8 Oeste 22 Noroeste 0 -- -- 76
2018-01-11 04:00:00 4.2 6 Sur 24 Sur 0 -- -- 87
2018-01-11 03:00:00 3.3 6 Norte 12 Sudoeste 0 -- -- 91
2018-01-11 02:00:00 3.2 3 Noroeste 9 Sudoeste 0 -- -- 92
2018-01-11 01:00:00 3.5 3 Noroeste 14 Sur 0 -- -- 92
2018-01-11 00:00:00 3.3 5 Sur 14 Sudoeste 0 -- -- 92
2018-01-10 23:00:00 4 3 Sudoeste 11 Sudeste 0 -- -- 92
2018-01-10 22:00:00 4.6 0 Calma 13 Sudeste 0 -- -- 93
2018-01-10 21:00:00 5.1 2 Sudeste 9 Sudoeste 0 -- -- 94
2018-01-10 20:00:00 6.8 3 Sudoeste 18 Oeste 0.6 -- -- 92
2018-01-10 19:00:00 7.1 4 Noroeste 10 Noroeste 1 -- -- 95
2018-01-10 18:00:00 7.8 5 Noroeste 30 Noroeste 1.2 -- -- 89
2018-01-10 17:00:00 11.3 8 Sudoeste 32 Este 0 -- -- 72
2018-01-10 16:00:00 11.6 14 Sudeste 29 Sudeste 0 -- -- 63
2018-01-10 15:00:00 10.6 17 Este 39 Sudeste 0 -- -- 65
2018-01-10 14:00:00 10.7 14 Este 33 Este 0 -- -- 60
2018-01-10 13:00:00 10.7 14 Sudeste 36 Sur 0 -- -- 59
2018-01-10 12:00:00 10.8 10 Sudeste 28 Sudeste 0 -- -- 63
2018-01-10 11:00:00 10.3 5 Sudeste 26 Este 0 -- -- 69
2018-01-10 10:00:00 4.6 3 Este 10 Sudoeste 0 -- -- 96
2018-01-10 09:00:00 2.6 2 Oeste 8 Sudoeste 0 -- -- 96
2018-01-10 08:00:00 2.3 3 Sudoeste 8 Sudoeste 0 -- -- 96
2018-01-10 07:00:00 2.3 0 Calma 11 Sudoeste 0 -- -- 94
2018-01-10 06:00:00 3.4 0 Calma 14 Este 0 -- -- 92
2018-01-10 05:00:00 3.4 2 Sur 10 Sudoeste 0 -- -- 93
2018-01-10 04:00:00 3.5 6 Sudoeste 10 Sudoeste 0 -- -- 92
2018-01-10 03:00:00 4 3 Oeste 10 Sudoeste 0 -- -- 88
2018-01-10 02:00:00 5 5 Oeste 10 Noroeste 0 -- -- 84
2018-01-10 01:00:00 6 2 Oeste 31 Sur 0 -- -- 79
2018-01-10 00:00:00 7.4 8 Sudeste 27 Sur 0 -- -- 73
2018-01-09 23:00:00 7 11 Sur 30 Sudeste 0 -- -- 75
2018-01-09 22:00:00 6.9 14 Sudeste 25 Este 0 -- -- 75
2018-01-09 21:00:00 7.8 10 Sudeste 24 Sur 0 -- -- 71
2018-01-09 20:00:00 7.7 10 Sur 29 Sudeste 0 -- -- 71
2018-01-09 19:00:00 7.1 15 Sudeste 39 Este 0 -- -- 74
2018-01-09 18:00:00 6.9 17 Sudeste 41 Sudeste 0 -- -- 74
2018-01-09 17:00:00 5.6 17 Este 36 Sudeste 0.6 -- -- 86
2018-01-09 16:00:00 6.4 16 Sudeste 32 Sur 0 -- -- 80
2018-01-09 15:00:00 8.1 18 Sur 50 Sur 0 -- -- 65
2018-01-09 14:00:00 9.2 10 Sudeste 26 Este 0 -- -- 50
2018-01-09 13:00:00 8.3 11 Sudeste 33 Sudeste 0 -- -- 56
2018-01-09 12:00:00 8.2 15 Sudeste 43 Sur 0 -- -- 56
2018-01-09 11:00:00 7.3 24 Sur 54 Sudeste 0 -- -- 59
2018-01-09 10:00:00 6.3 22 Sudeste 46 Sudeste 0 -- -- 62
2018-01-09 09:00:00 5.9 20 Sudeste 42 Sur 0 -- -- 64
2018-01-09 08:00:00 4.5 8 Sur 29 Sur 0 -- -- 72
2018-01-09 07:00:00 1.7 4 Oeste 11 Sur 0 -- -- 89
2018-01-09 06:00:00 3.7 6 Sur 18 Sur 0 -- -- 79
2018-01-09 05:00:00 0.9 4 Sudeste 13 Sur 0 -- -- 97
2018-01-09 04:00:00 -0.1 2 Sudeste 9 Sudoeste 0 -- -- 98
2018-01-09 03:00:00 -0.1 3 Nordeste 10 Oeste 0 -- -- 98
2018-01-09 02:00:00 -0.1 0 Calma 8 Oeste 0 -- -- 97
2018-01-09 01:00:00 0.2 0 Calma 8 Sudoeste 0 -- -- 97
2018-01-09 00:00:00 0.6 4 Sudoeste 9 Sudoeste 0 -- -- 96
2018-01-08 23:00:00 0.8 2 Oeste 4 Sudoeste 0 -- -- 95
2018-01-08 22:00:00 1.5 3 Oeste 8 Oeste 0 -- -- 93
2018-01-08 21:00:00 2.3 0 Calma 8 Oeste 0 -- -- 92
2018-01-08 20:00:00 3.2 0 Calma 9 Sudeste 0 -- -- 88
2018-01-08 19:00:00 4.7 5 Sur 9 Sudeste 0 -- -- 84
2018-01-08 18:00:00 5.6 2 Sudoeste 10 Sudoeste 0 -- -- 80
2018-01-08 17:00:00 9 6 Sur 14 Sudoeste 0 -- -- 62
2018-01-08 16:00:00 10 5 Sudeste 11 Sur 0 -- -- 56
2018-01-08 15:00:00 9.8 6 Este 11 Este 0 -- -- 53
2018-01-08 14:00:00 9.4 6 Sudeste 10 Este 0 -- -- 59
2018-01-08 13:00:00 9.8 5 Este 15 Este 0 -- -- 62
2018-01-08 12:00:00 8.7 2 Este 5 Este 0 -- -- 71
2018-01-08 11:00:00 5 0 Calma 4 Sudeste 0 -- -- 94
2018-01-08 10:00:00 2.3 0 Calma 6 Sudoeste 0 -- -- 100
2018-01-08 09:00:00 1.7 0 Calma 6 Oeste 0 -- -- 100
2018-01-08 08:00:00 1.8 2 Noroeste 6 Sudoeste 0 -- -- 100
2018-01-08 07:00:00 1.9 0 Calma 6 Sur 0 -- -- 100
2018-01-08 06:00:00 2.2 0 Calma 6 Sudoeste 0 -- -- 100
2018-01-08 05:00:00 2.3 0 Calma 7 Sudeste 0 -- -- 100
2018-01-08 04:00:00 2.1 0 Calma 5 Oeste 0 -- -- 100
2018-01-08 03:00:00 2.2 2 Oeste 8 Sudoeste 0 -- -- 99
2018-01-08 02:00:00 2.5 3 Sudoeste 8 Sur 0 -- -- 100
2018-01-08 01:00:00 1.9 0 Calma 8 Este 0 -- -- 99
2018-01-08 00:00:00 2.6 0 Calma 9 Sudoeste 0 -- -- 99
2018-01-07 23:00:00 3 4 Oeste 11 Sur 0 -- -- 98
2018-01-07 22:00:00 3.3 5 Sur 13 Sudoeste 0 -- -- 99
2018-01-07 21:00:00 3.7 4 Sudoeste 8 Sudoeste 0 -- -- 98
2018-01-07 20:00:00 4.6 0 Calma 8 Sudoeste 0 -- -- 96
2018-01-07 19:00:00 5.6 3 Sudoeste 6 Sudoeste 0 -- -- 93
2018-01-07 18:00:00 7 0 Calma 10 Sur 0 -- -- 92
2018-01-07 17:00:00 7.8 0 Calma 5 Este 0 -- -- 97
2018-01-07 16:00:00 7.8 0 Calma 6 Sur 0 -- -- 98
2018-01-07 15:00:00 7.3 4 Sudeste 8 Sur 0 -- -- 99
2018-01-07 14:00:00 7 0 Calma 4 Sudeste 0.4 -- -- 100
2018-01-07 13:00:00 6.2 0 Calma 5 Sudeste 0.2 -- -- 100
2018-01-07 12:00:00 5.9 0 Calma 9 Este 0.4 -- -- 100
2018-01-07 11:00:00 5.5 2 Sudeste 6 Sudeste 0.6 -- -- 100
2018-01-07 10:00:00 5.4 0 Calma 3 Este 0.6 -- -- 100
2018-01-07 09:00:00 5.2 0 Calma 6 Este 1.2 -- -- 99
2018-01-07 08:00:00 5.2 0 Calma 4 Este 0.4 -- -- 98
2018-01-07 07:00:00 5.2 2 Sudeste 12 Noroeste 0.2 -- -- 96
2018-01-07 06:00:00 5.3 8 Noroeste 20 Noroeste 1 -- -- 94
2018-01-07 05:00:00 5.3 9 Noroeste 23 Noroeste 1 -- -- 93
2018-01-07 04:00:00 5.3 10 Noroeste 24 Oeste 1.4 -- -- 94
2018-01-07 03:00:00 5.1 6 Noroeste 17 Noroeste 2.4 -- -- 96
2018-01-07 02:00:00 4.8 6 Noroeste 20 Noroeste 2.6 -- -- 96
2018-01-07 01:00:00 4.4 9 Noroeste 24 Noroeste 3 -- -- 98
2018-01-07 00:00:00 3.8 6 Noroeste 17 Oeste 2 -- -- 100
2018-01-06 23:00:00 2.2 2 Oeste 6 Oeste 2.2 -- -- 100
2018-01-06 22:00:00 1.7 0 Calma 4 Este 2.2 -- -- 100
2018-01-06 21:00:00 1.1 3 Este 7 Sur 2 -- -- 99
2018-01-06 20:00:00 1.7 0 Calma 4 Sudoeste 2.2 -- -- 97
2018-01-06 19:00:00 2.3 3 Noroeste 23 Noroeste 2 -- -- 97
2018-01-06 18:00:00 2.9 6 Noroeste 15 Noroeste 1.6 -- -- 96
2018-01-06 17:00:00 4 5 Nordeste 11 Noroeste 2 -- -- 96
2018-01-06 16:00:00 4.6 8 Noroeste 15 Noroeste 2.6 -- -- 96
2018-01-06 15:00:00 4.8 5 Noroeste 15 Noroeste 2 -- -- 96
2018-01-06 14:00:00 4.9 7 Oeste 16 Noroeste 2.8 -- -- 95
2018-01-06 13:00:00 4.9 4 Noroeste 12 Noroeste 1.6 -- -- 95
2018-01-06 12:00:00 4.9 5 Noroeste 10 Noroeste 1 -- -- 95
2018-01-06 11:00:00 5 2 Norte 6 Norte 0.8 -- -- 95
2018-01-06 10:00:00 4.7 2 Noroeste 8 Noroeste 1 -- -- 95
2018-01-06 09:00:00 4.7 3 Noroeste 6 Oeste 0.6 -- -- 95
2018-01-06 08:00:00 5 0 Calma 6 Noroeste 0.6 -- -- 98
2018-01-06 07:00:00 4.9 0 Calma 2 Sur 1 -- -- 97
2018-01-06 06:00:00 5 0 Calma 5 Este 1 -- -- 97
2018-01-06 05:00:00 5.3 2 Sudeste 5 Noroeste 0.8 -- -- 97
2018-01-06 04:00:00 5.4 4 Noroeste 15 Oeste 1.6 -- -- 95
2018-01-06 03:00:00 6.1 5 Noroeste 11 Noroeste 1.2 -- -- 98
2018-01-06 02:00:00 6.5 0 Calma 4 Sudoeste 0.4 -- -- 99
2018-01-06 01:00:00 6.6 0 Calma 5 Sudoeste 0.2 -- -- 98
2018-01-06 00:00:00 6.9 4 Sudoeste 5 Sudoeste 1.2 -- -- 98
2018-01-05 23:00:00 7.2 2 Oeste 4 Sudoeste 1.4 -- -- 98
2018-01-05 22:00:00 7.4 2 Sudoeste 5 Oeste 1 -- -- 97
2018-01-05 21:00:00 7.6 2 Noroeste 6 Noroeste 0.8 -- -- 94
2018-01-05 20:00:00 8 4 Noroeste 14 Norte 0.2 -- -- 92
2018-01-05 19:00:00 8.5 8 Noroeste 13 Noroeste 0.8 -- -- 95
2018-01-05 18:00:00 9 0 Calma 4 Este 0 -- -- 95
2018-01-05 17:00:00 9.1 2 Sur 12 Sur 0 -- -- 95
2018-01-05 16:00:00 9.1 3 Sudeste 8 Sur 0 -- -- 96
2018-01-05 15:00:00 8.7 4 Noroeste 12 Oeste 1 -- -- 96
2018-01-05 14:00:00 8.5 5 Oeste 10 Noroeste 1.2 -- -- 96
2018-01-05 13:00:00 8.9 2 Norte 8 Nordeste 2.4 -- -- 95
2018-01-05 12:00:00 9.3 5 Norte 15 Noroeste 3.6 -- -- 95
2018-01-05 11:00:00 10.8 2 Norte 6 Norte 1.4 -- -- 92
2018-01-05 10:00:00 12.4 3 Sur 18 Sur 0.2 -- -- 77
2018-01-05 09:00:00 13.3 4 Sur 33 Sudoeste 0 -- -- 65
2018-01-05 08:00:00 13.9 12 Este 31 Sudoeste 0 -- -- 61
2018-01-05 07:00:00 14.1 5 Nordeste 29 Sudoeste 0 -- -- 59
2018-01-05 06:00:00 14.1 6 Este 23 Este 0 -- -- 59
2018-01-05 05:00:00 14.2 9 Sudeste 31 Sudeste 0 -- -- 60
2018-01-05 04:00:00 14.4 18 Este 41 Sudeste 0 -- -- 61
2018-01-05 03:00:00 14.7 15 Este 49 Este 0 -- -- 59
2018-01-05 02:00:00 14.7 10 Este 32 Nordeste 0 -- -- 57
2018-01-05 01:00:00 14.7 5 Nordeste 27 Este 0 -- -- 61
2018-01-05 00:00:00 15.1 12 Este 30 Este 0 -- -- 61
2018-01-04 23:00:00 15.4 17 Este 35 Este 0 -- -- 59
2018-01-04 22:00:00 15.9 13 Este 40 Este 0 -- -- 57
2018-01-04 21:00:00 16 12 Nordeste 35 Sudeste 0 -- -- 57
2018-01-04 20:00:00 15.8 9 Este 31 Sudeste 0 -- -- 59
2018-01-04 19:00:00 15.5 11 Sudeste 31 Sudeste 0 -- -- 60
2018-01-04 18:00:00 16 8 Sudeste 24 Sudeste 0 -- -- 58
2018-01-04 17:00:00 16.8 8 Este 23 Este 0 -- -- 54
2018-01-04 16:00:00 17.2 3 Sur 26 Este 0 -- -- 53
2018-01-04 15:00:00 17.5 8 Sudoeste 31 Sudoeste 0 -- -- 55
2018-01-04 14:00:00 17.4 8 Sudoeste 20 Sudoeste 0 -- -- 56
2018-01-04 13:00:00 17.4 9 Sudoeste 40 Oeste 0 -- -- 57
2018-01-04 12:00:00 17.1 5 Sudoeste 16 Oeste 0 -- -- 63
2018-01-04 11:00:00 14.3 6 Noroeste 10 Sudeste 0 -- -- 79
2018-01-04 10:00:00 13 2 Este 12 Oeste 0 -- -- 85
2018-01-04 09:00:00 11.1 3 Sur 13 Sudoeste 0 -- -- 92
2018-01-04 08:00:00 11 4 Sudeste 10 Sudoeste 0 -- -- 93
2018-01-04 07:00:00 10.2 4 Sudeste 13 Oeste 0 -- -- 99
2018-01-04 06:00:00 9.3 0 Calma 9 Oeste 0 -- -- 99
2018-01-04 05:00:00 9.7 4 Noroeste 13 Sudoeste 0 -- -- 99
2018-01-04 04:00:00 9.9 2 Sudoeste 12 Sudoeste 0 -- -- 98
2018-01-04 03:00:00 10.7 2 Noroeste 10 Sudoeste 0 -- -- 98
2018-01-04 02:00:00 11.6 3 Noroeste 10 Oeste 0 -- -- 99
2018-01-04 01:00:00 12 3 Oeste 9 Oeste 0 -- -- 99
2018-01-04 00:00:00 11.9 0 Calma 9 Sudoeste 0 -- -- 99
2018-01-03 23:00:00 12.2 3 Sur 10 Sudoeste 0 -- -- 98
2018-01-03 22:00:00 12.8 2 Oeste 12 Sudeste 0 -- -- 97
2018-01-03 21:00:00 13.1 5 Sudeste 15 Sur 0 -- -- 98
2018-01-03 20:00:00 13 3 Sur 6 Sudoeste 0.8 -- -- 96
2018-01-03 19:00:00 13.1 5 Oeste 10 Sudoeste 0 -- -- 93
2018-01-03 18:00:00 14.3 5 Sudoeste 8 Sudoeste 0 -- -- 90
2018-01-03 17:00:00 15.9 3 Noroeste 15 Noroeste 0 -- -- 87
2018-01-03 16:00:00 17.1 8 Noroeste 12 Norte 0 -- -- 78
2018-01-03 15:00:00 17.8 3 Norte 12 Norte 0 -- -- 75
2018-01-03 14:00:00 18.3 4 Norte 16 Sudeste 0 -- -- 68
2018-01-03 13:00:00 18.2 6 Sur 21 Sur 0 -- -- 69
2018-01-03 12:00:00 17.9 4 Oeste 21 Sur 0 -- -- 68
2018-01-03 11:00:00 17.4 3 Sur 10 Noroeste 0 -- -- 72
2018-01-03 10:00:00 15.9 4 Nordeste 18 Oeste 0 -- -- 77
2018-01-03 09:00:00 16.5 5 Oeste 29 Oeste 0 -- -- 71
2018-01-03 08:00:00 16.1 4 Noroeste 32 Oeste 0 -- -- 73
2018-01-03 07:00:00 15.8 4 Oeste 17 Sudeste 0 -- -- 74
2018-01-03 06:00:00 15.3 7 Sudeste 19 Este 0 -- -- 76
2018-01-03 05:00:00 13 4 Norte 8 Norte 0 -- -- 88
2018-01-03 04:00:00 12.5 4 Oeste 10 Nordeste 0 -- -- 88
2018-01-03 03:00:00 12.9 4 Sudoeste 12 Sudoeste 0 -- -- 87
2018-01-03 02:00:00 13.4 2 Norte 10 Nordeste 0 -- -- 85
2018-01-03 01:00:00 12.8 2 Norte 8 Norte 0 -- -- 87
2018-01-03 00:00:00 12.1 6 Noroeste 9 Oeste 0 -- -- 88
2018-01-02 23:00:00 11.8 2 Noroeste 9 Noroeste 0 -- -- 90
2018-01-02 22:00:00 11.6 3 Oeste 10 Oeste 0 -- -- 91
2018-01-02 21:00:00 11.3 5 Sudoeste 10 Oeste 0 -- -- 91
2018-01-02 20:00:00 12.3 0 Calma 9 Sudoeste 0 -- -- 88
2018-01-02 19:00:00 14.1 2 Este 20 Sudoeste 0 -- -- 81
2018-01-02 18:00:00 15.5 9 Oeste 23 Oeste 0 -- -- 71
2018-01-02 17:00:00 15.6 7 Sudeste 14 Sur 0 -- -- 73
2018-01-02 16:00:00 14.8 4 Sur 19 Sudeste 0 -- -- 77
2018-01-02 15:00:00 13.4 5 Este 12 Sudeste 0.2 -- -- 87
2018-01-02 14:00:00 12 8 Nordeste 16 Nordeste 0 -- -- 95
2018-01-02 13:00:00 11.3 4 Noroeste 10 Nordeste 1 -- -- 97
2018-01-02 12:00:00 10.7 3 Noroeste 8 Oeste 1.8 -- -- 96
2018-01-02 11:00:00 10.9 3 Norte 18 Oeste 0.8 -- -- 93
2018-01-02 10:00:00 11.4 8 Sur 26 Sur 0.6 -- -- 83
2018-01-02 09:00:00 11.6 8 Sudeste 18 Sur 0 -- -- 79
2018-01-02 08:00:00 11.5 9 Oeste 32 Oeste 0.2 -- -- 80
2018-01-02 07:00:00 10.7 2 Noroeste 23 Oeste 0 -- -- 85
2018-01-02 06:00:00 10.5 4 Sudeste 15 Sur 0.2 -- -- 90
2018-01-02 05:00:00 9.4 2 Noroeste 8 Oeste 0 -- -- 100
2018-01-02 04:00:00 9.5 2 Sudeste 8 Sur 0 -- -- 100
2018-01-02 03:00:00 9.7 0 Calma 8 Sur 1.4 -- -- 100
2018-01-02 02:00:00 9.9 0 Calma 5 Sudeste 1.2 -- -- 100
2018-01-02 01:00:00 10.1 0 Calma 5 Sudeste 0.6 -- -- 99
2018-01-02 00:00:00 10.2 5 Sur 9 Sudeste 2.4 -- -- 99
2018-01-01 23:00:00 10.4 0 Calma 5 Sur 2.4 -- -- 98
2018-01-01 22:00:00 10.7 2 Sudeste 10 Norte 1.2 -- -- 96
2018-01-01 21:00:00 11.3 4 Norte 23 Oeste 0.6 -- -- 90
2018-01-01 20:00:00 12.4 6 Oeste 27 Oeste 0 -- -- 78
2018-01-01 19:00:00 10.7 4 Noroeste 15 Noroeste 0.2 -- -- 91
2018-01-01 18:00:00 10.1 3 Oeste 6 Nordeste 2 -- -- 95
2018-01-01 17:00:00 11 3 Nordeste 49 Sudoeste 2.2 -- -- 88
2018-01-01 16:00:00 13.6 13 Sudoeste 50 Sudoeste 0 -- -- 66
2018-01-01 15:00:00 13.6 24 Sudoeste 60 Sudoeste 0 -- -- 59
2018-01-01 14:00:00 13.2 36 Sudoeste 66 Oeste 0 -- -- 58
2018-01-01 13:00:00 12.9 17 Sudoeste 61 Sudoeste 0 -- -- 58
2018-01-01 12:00:00 12.7 15 Este 45 Sudeste 0 -- -- 56
2018-01-01 11:00:00 10.1 19 Este 36 Sudeste 0 -- -- 63
2018-01-01 10:00:00 10 17 Sudeste 37 Sudeste 0 -- -- 61
2018-01-01 09:00:00 8.7 15 Sudeste 36 Este 0 -- -- 63
2018-01-01 08:00:00 8.2 10 Sudeste 32 Sur 0 -- -- 64
2018-01-01 07:00:00 5.5 4 Oeste 14 Este 0 -- -- 77
2018-01-01 06:00:00 5.4 4 Sur 17 Sur 0 -- -- 75
2018-01-01 05:00:00 3.8 7 Sudeste 13 Sudeste 0 -- -- 84
2018-01-01 04:00:00 2 2 Noroeste 7 Oeste 0 -- -- 94
2018-01-01 03:00:00 2.2 4 Oeste 12 Sudoeste 0 -- -- 93
2018-01-01 02:00:00 2.7 2 Sur 11 Sudoeste 0 -- -- 92
2018-01-01 01:00:00 3.4 4 Oeste 10 Sudoeste 0 -- -- 92
2018-01-01 00:00:00 3.6 3 Sudoeste 9 Oeste 0 -- -- 92
2017-12-31 23:00:00 4.6 2 Norte 12 Sudoeste 0.2 -- -- 91
2017-12-31 22:00:00 5 3 Sudeste 12 Oeste 0 -- -- 91
2017-12-31 21:00:00 5.7 4 Sudeste 10 Sudeste 0 -- -- 96
2017-12-31 20:00:00 7 2 Sur 7 Este 0 -- -- 94
2017-12-31 19:00:00 7.6 5 Sur 10 Sur 0 -- -- 94
2017-12-31 18:00:00 8 5 Este 12 Sudoeste 1.2 -- -- 89
2017-12-31 17:00:00 8.3 6 Nordeste 21 Noroeste 3.6 -- -- 93
2017-12-31 16:00:00 9.4 13 Noroeste 34 Noroeste 3.8 -- -- 91
2017-12-31 15:00:00 15.1 9 Sudoeste 30 Sur 0 -- -- 62
2017-12-31 14:00:00 15.5 14 Sur 41 Sur 0 -- -- 56
2017-12-31 13:00:00 16.7 16 Sur 39 Sur 0 -- -- 52
2017-12-31 12:00:00 16.6 12 Sur 40 Sur 0 -- -- 52
2017-12-31 11:00:00 15.3 10 Nordeste 30 Sudoeste 0 -- -- 54
2017-12-31 10:00:00 14.5 11 Sudeste 54 Sur 0 -- -- 55
2017-12-31 09:00:00 14.4 14 Sur 34 Sudoeste 0 -- -- 57
2017-12-31 08:00:00 14.1 13 Este 28 Este 0 -- -- 57
2017-12-31 07:00:00 13.8 9 Sudeste 27 Sur 0 -- -- 58
2017-12-31 06:00:00 13.6 9 Sur 21 Sudeste 0 -- -- 59
2017-12-31 05:00:00 13.7 10 Sur 28 Sudoeste 0 -- -- 59
2017-12-31 04:00:00 13.5 7 Sur 22 Sur 0 -- -- 61
2017-12-31 03:00:00 13.9 18 Sudoeste 46 Sudoeste 0 -- -- 60
2017-12-31 02:00:00 14.1 10 Sur 31 Sur 0 -- -- 60
2017-12-31 01:00:00 14.2 16 Sur 40 Sur 0 -- -- 60